Time;durP1;ratioP1;P1;durP2;ratioP2;P2;SDS_P1;SDS_P2;PMS_P1;PMS_P2;Temp;Humidity;BMP_temperature;BMP_pressure;BME280_temperature;BME280_humidity;BME280_pressure;Samples;Min_cycle;Max_cycle;Signal;HPM_P1;HPM_P2
2022/04/07 00:01:45;;;;;;;3.38;2.65;;;;;;;11.99;65.68;95670.59;5011666;28;20026;-83
2022/04/07 00:04:10;;;;;;;2.58;2.03;;;;;;;11.84;65.84;95669.03;5028802;28;20393;-83
2022/04/07 00:06:37;;;;;;;4.72;2.65;;;;;;;11.96;65.81;95674.59;5029214;28;20152;-82
2022/04/07 00:09:03;;;;;;;5.88;3.90;;;;;;;12.00;65.35;95661.72;5045394;28;20096;-82
2022/04/07 00:11:29;;;;;;;4.25;2.65;;;;;;;11.96;65.24;95652.91;5028730;28;20330;-81
2022/04/07 00:13:54;;;;;;;4.60;3.53;;;;;;;11.93;65.29;95643.09;5028367;28;20517;-82
2022/04/07 00:16:20;;;;;;;3.55;2.63;;;;;;;11.97;65.23;95644.81;5028421;28;20028;-81
2022/04/07 00:18:46;;;;;;;4.25;2.70;;;;;;;11.90;65.09;95641.78;5011787;28;20033;-83
2022/04/07 00:21:12;;;;;;;5.13;2.60;;;;;;;12.07;64.37;95632.66;5011790;28;20819;-80
2022/04/07 00:23:40;;;;;;;3.35;2.50;;;;;;;11.87;64.90;95639.75;5028834;28;20137;-83
2022/04/07 00:26:06;;;;;;;4.03;2.50;;;;;;;11.80;65.12;95627.09;5028407;28;20038;-80
2022/04/07 00:28:31;;;;;;;3.65;2.78;;;;;;;11.70;65.56;95632.50;5028353;28;20108;-81
2022/04/07 00:31:00;;;;;;;5.15;2.38;;;;;;;11.79;65.06;95622.19;5012198;28;20460;-83
2022/04/07 00:33:25;;;;;;;3.65;2.80;;;;;;;11.80;65.38;95608.84;5011071;28;20040;-81
2022/04/07 00:35:50;;;;;;;3.85;2.53;;;;;;;11.90;65.65;95604.50;5028552;28;20017;-83
2022/04/07 00:38:16;;;;;;;4.72;3.30;;;;;;;11.51;66.17;95610.97;4995323;28;20087;-82
2022/04/07 00:40:41;;;;;;;2.95;2.42;;;;;;;11.87;65.38;95615.53;4995010;28;20091;-82
2022/04/07 00:43:07;;;;;;;5.72;2.22;;;;;;;11.82;65.34;95598.13;5011604;28;20036;-82
2022/04/07 00:45:32;;;;;;;4.55;3.13;;;;;;;11.73;65.48;95597.28;5011591;28;20030;-80
2022/04/07 00:47:58;;;;;;;4.25;2.60;;;;;;;11.78;65.88;95608.38;5028059;28;20037;-82
2022/04/07 00:50:24;;;;;;;4.80;3.08;;;;;;;11.68;65.89;95605.94;5011084;28;20060;-83
2022/04/07 00:53:00;;;;;;;4.85;2.75;;;;;;;11.68;65.51;95603.34;5028018;28;20029;-82
2022/04/07 00:55:26;;;;;;;3.08;2.58;;;;;;;11.64;66.55;95591.97;5027884;28;20033;-82
2022/04/07 00:57:52;;;;;;;3.38;2.63;;;;;;;11.67;66.44;95594.00;5027860;28;20033;-82
2022/04/07 01:00:17;;;;;;;3.63;3.08;;;;;;;11.80;66.14;95593.19;5027621;28;20025;-82
2022/04/07 01:02:43;;;;;;;3.90;2.60;;;;;;;11.66;66.64;95582.00;5010457;28;20146;-82
2022/04/07 01:05:09;;;;;;;3.47;2.60;;;;;;;11.50;67.63;95578.13;5024698;28;20034;-82
2022/04/07 01:07:39;;;;;;;3.72;2.90;;;;;;;11.61;67.11;95590.69;5008200;28;20065;-81
2022/04/07 01:10:07;;;;;;;3.50;2.67;;;;;;;11.61;66.54;95576.91;4991737;28;20088;-81
2022/04/07 01:12:32;;;;;;;3.42;3.10;;;;;;;11.71;66.50;95581.91;5009128;28;20068;-83
2022/04/07 01:15:00;;;;;;;4.20;3.13;;;;;;;11.58;66.74;95574.88;5011263;28;20440;-81
2022/04/07 01:17:26;;;;;;;4.03;2.53;;;;;;;11.71;66.46;95571.50;5027623;28;20083;-82
2022/04/07 01:19:53;;;;;;;4.80;3.00;;;;;;;11.65;66.60;95564.06;5010888;28;20064;-82
2022/04/07 01:22:19;;;;;;;4.50;3.05;;;;;;;11.54;67.32;95551.22;5027325;28;20037;-83
2022/04/07 01:24:46;;;;;;;4.53;3.13;;;;;;;11.71;66.79;95561.06;5027346;28;20124;-82
2022/04/07 01:27:12;;;;;;;4.05;2.70;;;;;;;11.64;66.85;95563.28;5028738;28;20108;-82
2022/04/07 01:29:38;;;;;;;5.72;3.47;;;;;;;11.46;67.65;95557.09;5027061;28;20124;-82
2022/04/07 01:32:12;;;;;;;2.90;2.35;;;;;;;11.28;68.62;95553.53;5010934;28;20136;-82
2022/04/07 01:34:39;;;;;;;3.90;2.63;;;;;;;11.64;67.48;95546.88;5026934;28;20029;-81
2022/04/07 01:37:05;;;;;;;3.05;2.20;;;;;;;11.42;68.00;95540.50;5027409;28;20086;-83
2022/04/07 01:39:31;;;;;;;4.10;2.90;;;;;;;11.40;68.72;95537.41;5043483;28;20651;-83
2022/04/07 01:41:56;;;;;;;3.90;2.30;;;;;;;11.39;68.08;95536.63;5027253;28;20040;-83
2022/04/07 01:44:24;;;;;;;3.92;2.33;;;;;;;11.19;68.65;95531.78;5026684;28;20116;-82
2022/04/07 01:46:51;;;;;;;2.90;2.28;;;;;;;11.27;68.80;95535.56;5043518;28;20037;-82
2022/04/07 01:49:17;;;;;;;3.67;2.40;;;;;;;11.39;68.52;95531.41;5042806;28;20075;-82
2022/04/07 01:51:45;;;;;;;2.90;2.08;;;;;;;11.20;68.89;95517.72;5043441;28;20094;-83
2022/04/07 01:54:11;;;;;;;3.47;2.58;;;;;;;10.85;70.16;95527.72;5027063;28;20033;-81
2022/04/07 01:56:43;;;;;;;2.58;2.20;;;;;;;10.93;69.88;95516.63;5026969;28;20363;-81
2022/04/07 01:59:10;;;;;;;3.63;2.50;;;;;;;10.78;70.44;95515.06;5043368;28;20029;-82
2022/04/07 02:01:35;;;;;;;3.45;2.00;;;;;;;10.96;69.60;95507.47;5018566;28;20026;-82
2022/04/07 02:04:01;;;;;;;3.20;2.15;;;;;;;11.17;69.50;95523.50;5023448;28;20057;-83
2022/04/07 02:06:27;;;;;;;2.95;2.50;;;;;;;11.30;69.25;95507.09;4990464;28;20057;-83
2022/04/07 02:08:53;;;;;;;2.75;2.45;;;;;;;11.52;68.12;95495.25;4989990;28;20030;-81
2022/04/07 02:11:18;;;;;;;3.40;2.33;;;;;;;11.32;68.69;95499.78;5007705;28;20596;-82
2022/04/07 02:13:44;;;;;;;3.20;2.42;;;;;;;11.31;69.00;95497.44;5010051;28;20040;-83
2022/04/07 02:16:10;;;;;;;2.80;2.38;;;;;;;11.56;67.79;95498.78;5010374;28;20056;-83
2022/04/07 02:18:37;;;;;;;3.03;2.13;;;;;;;11.41;68.39;95498.03;5026268;28;20033;-82
2022/04/07 02:21:03;;;;;;;4.00;2.88;;;;;;;11.21;69.27;95488.00;5043150;28;20073;-84
2022/04/07 02:23:28;;;;;;;3.25;2.58;;;;;;;11.37;68.84;95478.81;5026499;28;20034;-83
2022/04/07 02:25:54;;;;;;;3.30;1.90;;;;;;;11.42;68.58;95480.56;5026378;28;20038;-82
2022/04/07 02:28:20;;;;;;;4.78;2.63;;;;;;;11.48;68.65;95481.22;5010134;28;20065;-83
2022/04/07 02:30:46;;;;;;;4.05;2.47;;;;;;;11.50;68.10;95466.06;5010207;28;20440;-83
2022/04/07 02:33:12;;;;;;;3.30;2.50;;;;;;;11.50;68.83;95474.69;5026558;28;20053;-81
2022/04/07 02:35:38;;;;;;;4.03;2.42;;;;;;;11.66;68.07;95477.72;5026440;28;20021;-83
2022/04/07 02:38:03;;;;;;;4.10;2.80;;;;;;;11.58;68.35;95468.00;5026448;28;20033;-81
2022/04/07 02:40:29;;;;;;;2.78;2.42;;;;;;;11.34;68.37;95444.75;5026070;28;20120;-80
2022/04/07 02:42:54;;;;;;;2.95;2.40;;;;;;;11.23;69.81;95457.22;5027859;28;20033;-82
2022/04/07 02:45:20;;;;;;;3.08;2.65;;;;;;;11.20;69.90;95460.41;5010037;28;20520;-82
2022/04/07 02:47:45;;;;;;;3.55;2.42;;;;;;;11.33;69.08;95464.84;5027372;28;20135;-81
2022/04/07 02:50:10;;;;;;;4.72;2.42;;;;;;;11.28;69.18;95466.78;5025805;28;20455;-81
2022/04/07 02:52:36;;;;;;;4.15;2.60;;;;;;;11.50;68.67;95463.47;5026717;28;20031;-81
2022/04/07 02:55:02;;;;;;;4.43;2.67;;;;;;;11.16;69.63;95459.47;4993250;28;20328;-82
2022/04/07 02:57:34;;;;;;;3.55;2.30;;;;;;;11.31;68.88;95450.56;5013726;28;20528;-82
2022/04/07 03:00:00;;;;;;;4.28;2.55;;;;;;;11.35;69.00;95460.09;5029746;28;20552;-82
2022/04/07 03:02:26;;;;;;;4.63;2.70;;;;;;;11.10;69.79;95453.56;5014433;28;20057;-80
2022/04/07 03:04:52;;;;;;;2.83;2.13;;;;;;;10.86;70.60;95445.91;5009959;28;20041;-80
2022/04/07 03:07:17;;;;;;;3.38;2.20;;;;;;;11.07;70.15;95451.53;5010216;28;20029;-82
2022/04/07 03:09:43;;;;;;;4.25;2.35;;;;;;;11.09;69.76;95446.03;5010025;28;20385;-82
2022/04/07 03:12:09;;;;;;;2.78;2.55;;;;;;;11.28;69.48;95446.72;5029657;28;20151;-81
2022/04/07 03:14:34;;;;;;;3.95;2.22;;;;;;;11.21;69.12;95438.50;5013304;28;20116;-80
2022/04/07 03:17:00;;;;;;;3.90;2.70;;;;;;;11.35;68.55;95444.47;5012964;28;20211;-81
2022/04/07 03:19:25;;;;;;;2.40;2.00;;;;;;;11.49;68.36;95443.69;5012866;28;20056;-80
2022/04/07 03:21:50;;;;;;;4.57;2.15;;;;;;;11.23;68.88;95429.34;5029347;28;20314;-79
2022/04/07 03:24:16;;;;;;;2.35;2.15;;;;;;;11.39;68.74;95437.59;5029667;28;20349;-82
2022/04/07 03:26:41;;;;;;;2.88;2.00;;;;;;;11.63;68.17;95436.59;5013187;28;20072;-80
2022/04/07 03:29:07;;;;;;;3.65;2.17;;;;;;;11.26;69.42;95422.78;5028973;28;20080;-80
2022/04/07 03:31:32;;;;;;;2.53;2.17;;;;;;;11.46;68.92;95426.03;5029402;28;20342;-81
2022/04/07 03:33:58;;;;;;;3.22;2.20;;;;;;;11.35;68.64;95426.25;4996477;28;20516;-81
2022/04/07 03:36:23;;;;;;;2.95;2.53;;;;;;;11.27;69.14;95419.09;4996339;28;20030;-81
2022/04/07 03:38:51;;;;;;;2.45;1.92;;;;;;;11.51;68.13;95424.06;5028856;28;20040;-80
2022/04/07 03:41:19;;;;;;;3.55;1.98;;;;;;;11.16;69.66;95417.78;5045989;28;20060;-81
2022/04/07 03:43:44;;;;;;;2.30;1.95;;;;;;;11.31;69.18;95412.25;5012999;28;20030;-81
2022/04/07 03:46:11;;;;;;;3.20;1.60;;;;;;;11.43;68.33;95416.97;5012529;28;20042;-80
2022/04/07 03:48:36;;;;;;;2.30;1.95;;;;;;;11.26;69.48;95404.56;4996117;28;20526;-83
2022/04/07 03:51:02;;;;;;;2.13;1.88;;;;;;;11.31;68.61;95408.88;5028962;28;20104;-82
2022/04/07 03:53:28;;;;;;;3.63;1.52;;;;;;;11.31;69.11;95422.69;5029574;28;20037;-82
2022/04/07 03:55:53;;;;;;;1.67;1.38;;;;;;;11.29;69.51;95411.75;5045936;28;20045;-84
2022/04/07 03:58:19;;;;;;;1.80;1.50;;;;;;;11.06;69.96;95388.25;4996594;28;20030;-83
2022/04/07 04:00:44;;;;;;;1.98;1.40;;;;;;;11.25;69.60;95405.59;5029080;28;20424;-82
2022/04/07 04:03:09;;;;;;;2.08;1.20;;;;;;;11.27;69.58;95395.66;5045323;28;20528;-82
2022/04/07 04:05:35;;;;;;;2.25;1.65;;;;;;;11.27;69.37;95377.41;5029021;28;20461;-80
2022/04/07 04:08:00;;;;;;;3.20;1.30;;;;;;;11.25;69.76;95374.34;5045248;28;20025;-83
2022/04/07 04:10:26;;;;;;;3.78;1.55;;;;;;;11.35;68.87;95371.53;5028584;28;20029;-81
2022/04/07 04:12:51;;;;;;;1.67;1.10;;;;;;;11.00;70.59;95368.59;5045082;28;20033;-82
2022/04/07 04:15:20;;;;;;;1.42;0.95;;;;;;;10.96;70.24;95365.00;4996135;28;20544;-82
2022/04/07 04:17:45;;;;;;;0.90;0.80;;;;;;;11.02;70.05;95371.69;5028490;28;20029;-81
2022/04/07 04:20:10;;;;;;;0.90;0.60;;;;;;;11.17;70.09;95367.22;5028389;28;20440;-83
2022/04/07 04:22:36;;;;;;;1.30;0.77;;;;;;;11.21;69.95;95362.97;5029092;28;20441;-82
2022/04/07 04:25:03;;;;;;;0.95;0.70;;;;;;;11.42;68.96;95358.84;5012158;28;20065;-82
2022/04/07 04:27:28;;;;;;;2.67;0.73;;;;;;;11.28;69.02;95342.50;5028886;28;20040;-83
2022/04/07 04:29:54;;;;;;;1.00;0.90;;;;;;;11.00;70.67;95354.78;5027940;28;20026;-81
2022/04/07 04:32:19;;;;;;;2.50;1.30;;;;;;;10.86;70.79;95345.19;5011736;28;20076;-83
2022/04/07 04:34:44;;;;;;;0.98;0.85;;;;;;;10.89;71.33;95346.41;5011908;28;20061;-82
2022/04/07 04:37:10;;;;;;;1.38;0.98;;;;;;;10.82;71.74;95366.88;5028309;28;20040;-82
2022/04/07 04:39:35;;;;;;;1.20;1.00;;;;;;;11.12;70.46;95362.09;5028516;28;20569;-82
2022/04/07 04:42:01;;;;;;;2.08;1.13;;;;;;;10.79;70.69;95349.22;5027800;28;20029;-81
2022/04/07 04:44:28;;;;;;;1.10;1.00;;;;;;;11.06;70.83;95346.56;5045131;28;20029;-80
2022/04/07 04:46:54;;;;;;;1.40;1.05;;;;;;;10.72;71.49;95341.03;5028091;28;20033;-81
2022/04/07 04:49:19;;;;;;;1.27;0.95;;;;;;;11.24;70.14;95347.53;5011159;28;20050;-82
2022/04/07 04:51:45;;;;;;;1.67;1.38;;;;;;;11.32;69.66;95347.88;5011496;28;20075;-82
2022/04/07 04:54:13;;;;;;;0.93;0.75;;;;;;;11.27;70.12;95325.31;5011278;28;20044;-81
2022/04/07 04:56:39;;;;;;;1.55;1.00;;;;;;;11.16;70.23;95337.03;5028419;28;20485;-80
2022/04/07 04:59:04;;;;;;;1.65;0.90;;;;;;;11.03;70.91;95335.97;5027221;28;20025;-82
2022/04/07 05:01:29;;;;;;;3.80;1.13;;;;;;;11.15;70.01;95332.88;5018793;28;20056;-82
2022/04/07 05:03:55;;;;;;;1.63;1.00;;;;;;;11.05;70.99;95324.22;5023566;28;20018;-82
2022/04/07 05:06:20;;;;;;;1.02;0.90;;;;;;;11.18;70.13;95319.28;5008094;28;20018;-82
2022/04/07 05:08:45;;;;;;;1.98;0.93;;;;;;;11.19;70.05;95318.97;5023250;28;20422;-82
2022/04/07 05:11:11;;;;;;;1.02;0.90;;;;;;;11.04;70.78;95317.47;5023084;28;20034;-81
2022/04/07 05:13:36;;;;;;;1.30;1.08;;;;;;;11.02;70.57;95314.38;5025976;28;20423;-80
2022/04/07 05:16:01;;;;;;;1.92;0.80;;;;;;;10.83;70.76;95313.72;5026079;28;20047;-81
2022/04/07 05:18:27;;;;;;;2.72;1.60;;;;;;;11.11;70.65;95305.88;5009047;28;20041;-80
2022/04/07 05:20:52;;;;;;;3.15;1.20;;;;;;;11.11;70.04;95318.91;5025697;28;20036;-83
2022/04/07 05:23:17;;;;;;;2.00;1.67;;;;;;;11.12;70.27;95307.41;5026189;28;20037;-81
2022/04/07 05:25:43;;;;;;;1.60;1.10;;;;;;;11.06;70.46;95304.16;5026156;28;20025;-81
2022/04/07 05:28:08;;;;;;;1.90;1.00;;;;;;;11.17;69.86;95308.09;5027309;28;20029;-82
2022/04/07 05:30:33;;;;;;;2.10;1.00;;;;;;;11.24;69.55;95310.25;5026359;28;20120;-81
2022/04/07 05:32:59;;;;;;;1.63;1.40;;;;;;;11.16;69.98;95309.13;5010103;28;20114;-81
2022/04/07 05:35:28;;;;;;;1.90;1.02;;;;;;;10.93;70.40;95305.69;5010824;28;20029;-81
2022/04/07 05:38:01;;;;;;;2.08;1.02;;;;;;;10.95;70.09;95298.38;5027119;28;20036;-82
2022/04/07 05:40:27;;;;;;;1.00;0.90;;;;;;;11.00;70.45;95300.88;5010778;28;20346;-81
2022/04/07 05:42:52;;;;;;;2.53;1.10;;;;;;;11.15;69.85;95291.19;5010639;28;20044;-82
2022/04/07 05:45:18;;;;;;;1.25;0.82;;;;;;;11.19;69.80;95294.75;5010060;28;20029;-82
2022/04/07 05:47:43;;;;;;;1.20;0.90;;;;;;;10.95;70.43;95274.16;5027559;28;20124;-81
2022/04/07 05:50:10;;;;;;;0.95;0.60;;;;;;;11.00;70.69;95280.06;5028092;28;20112;-81
2022/04/07 05:52:35;;;;;;;1.67;0.80;;;;;;;10.79;71.08;95255.50;5026810;28;20108;-80
2022/04/07 05:55:00;;;;;;;1.05;0.60;;;;;;;11.06;70.62;95258.03;5010420;28;20229;-80
2022/04/07 05:57:26;;;;;;;2.03;0.90;;;;;;;11.00;70.72;95259.22;5026573;28;20504;-80
2022/04/07 05:59:52;;;;;;;2.00;0.50;;;;;;;11.00;70.81;95246.19;5009987;28;20469;-80
2022/04/07 06:02:17;;;;;;;2.78;0.77;;;;;;;10.82;71.70;95241.91;5012230;28;20061;-82
2022/04/07 06:04:42;;;;;;;1.00;0.60;;;;;;;11.09;70.27;95245.47;5007124;28;20033;-81
2022/04/07 06:07:08;;;;;;;1.02;0.50;;;;;;;10.66;71.71;95241.47;5023869;28;20474;-80
2022/04/07 06:09:35;;;;;;;0.60;0.50;;;;;;;10.92;71.34;95244.28;5007181;28;20060;-82
2022/04/07 06:12:00;;;;;;;1.38;0.50;;;;;;;10.80;71.57;95231.03;5029390;28;20128;-81
2022/04/07 06:14:25;;;;;;;1.25;0.50;;;;;;;10.94;70.91;95225.78;5026300;28;20112;-80
2022/04/07 06:16:51;;;;;;;0.70;0.50;;;;;;;10.89;71.54;95211.03;5009855;28;20021;-80
2022/04/07 06:19:16;;;;;;;1.23;0.50;;;;;;;11.01;71.24;95226.91;5009710;28;20065;-81
2022/04/07 06:21:43;;;;;;;0.50;0.30;;;;;;;11.03;70.79;95211.75;5027720;28;20079;-81
2022/04/07 06:24:09;;;;;;;0.85;0.50;;;;;;;10.62;72.33;95202.22;5026261;28;20036;-80
2022/04/07 06:26:34;;;;;;;0.90;0.32;;;;;;;10.50;72.87;95194.16;5026516;28;20018;-82
2022/04/07 06:28:59;;;;;;;1.00;0.40;;;;;;;10.85;72.46;95210.09;5026259;28;20033;-82
2022/04/07 06:31:24;;;;;;;1.23;0.35;;;;;;;10.93;72.05;95196.34;5013943;28;20064;-81
2022/04/07 06:33:50;;;;;;;0.60;0.35;;;;;;;10.54;73.06;95194.34;5014052;28;20104;-81
2022/04/07 06:36:15;;;;;;;1.20;0.43;;;;;;;10.59;73.22;95170.81;5030331;28;20401;-81
2022/04/07 06:38:40;;;;;;;1.40;0.50;;;;;;;11.05;72.06;95177.59;5030053;28;20034;-81
2022/04/07 06:41:06;;;;;;;0.90;0.40;;;;;;;10.79;72.79;95156.59;5030706;28;20033;-82
2022/04/07 06:43:32;;;;;;;0.85;0.65;;;;;;;11.13;71.63;95157.91;5014060;28;20033;-82
2022/04/07 06:45:57;;;;;;;0.60;0.55;;;;;;;11.01;72.29;95153.22;4997311;28;20022;-83
2022/04/07 06:48:22;;;;;;;0.63;0.32;;;;;;;11.09;71.97;95149.91;5013339;28;20049;-82
2022/04/07 06:50:48;;;;;;;0.40;0.40;;;;;;;11.35;70.85;95144.84;5030166;28;20033;-81
2022/04/07 06:53:13;;;;;;;1.77;0.50;;;;;;;11.13;71.96;95130.00;5030021;28;20104;-80
2022/04/07 06:55:39;;;;;;;0.95;0.40;;;;;;;11.24;71.22;95140.94;5030369;28;20026;-81
2022/04/07 06:58:06;;;;;;;1.48;0.35;;;;;;;11.18;71.36;95127.28;5013196;28;20033;-81
2022/04/07 07:00:34;;;;;;;1.02;0.50;;;;;;;11.17;71.40;95125.75;5047053;28;20037;-81
2022/04/07 07:03:01;;;;;;;0.98;0.65;;;;;;;11.05;72.07;95122.91;4997305;28;20036;-81
2022/04/07 07:05:29;;;;;;;0.93;0.40;;;;;;;10.88;72.39;95110.53;5013010;28;20040;-80
2022/04/07 07:07:54;;;;;;;1.20;0.30;;;;;;;10.67;73.75;95105.03;5030007;28;20056;-81
2022/04/07 07:10:21;;;;;;;0.82;0.40;;;;;;;10.87;72.93;95098.59;5013295;28;20034;-82
2022/04/07 07:12:48;;;;;;;0.85;0.40;;;;;;;10.83;72.82;95101.03;5046258;28;20033;-82
2022/04/07 07:15:13;;;;;;;1.17;0.85;;;;;;;10.96;72.74;95083.78;5029809;28;20275;-81
2022/04/07 07:17:39;;;;;;;0.55;0.40;;;;;;;11.19;72.22;95079.34;5030004;28;20151;-81
2022/04/07 07:20:06;;;;;;;1.02;0.55;;;;;;;11.21;71.72;95068.63;5029533;28;20025;-81
2022/04/07 07:22:31;;;;;;;0.85;0.50;;;;;;;10.86;73.54;95065.81;5013252;28;20025;-83
2022/04/07 07:24:58;;;;;;;0.52;0.30;;;;;;;10.99;72.90;95078.00;5029700;28;20060;-80
2022/04/07 07:27:23;;;;;;;0.55;0.32;;;;;;;11.21;72.43;95066.78;5029913;28;20077;-84
2022/04/07 07:29:48;;;;;;;0.63;0.35;;;;;;;11.50;71.60;95082.97;5029170;28;20513;-82
2022/04/07 07:32:14;;;;;;;0.50;0.50;;;;;;;11.29;71.98;95054.84;5029765;28;20030;-82
2022/04/07 07:34:39;;;;;;;0.38;0.32;;;;;;;11.87;70.32;95050.41;5013062;28;20087;-81
2022/04/07 07:37:05;;;;;;;1.00;0.35;;;;;;;11.66;70.81;95052.06;5029339;28;20032;-83
2022/04/07 07:39:30;;;;;;;0.68;0.30;;;;;;;11.40;71.81;95061.34;5028989;28;20033;-83
2022/04/07 07:41:55;;;;;;;1.35;0.60;;;;;;;11.61;70.69;95045.91;4995772;28;20036;-82
2022/04/07 07:44:21;;;;;;;0.55;0.40;;;;;;;11.03;72.83;95034.66;4996147;28;20029;-82
2022/04/07 07:46:46;;;;;;;0.68;0.50;;;;;;;10.85;73.08;95033.06;5012844;28;20032;-84
2022/04/07 07:49:13;;;;;;;1.38;0.50;;;;;;;11.31;72.36;95036.31;5028776;28;20041;-82
2022/04/07 07:51:38;;;;;;;0.75;0.60;;;;;;;11.27;72.03;95032.78;4996696;28;20088;-80
2022/04/07 07:54:04;;;;;;;0.47;0.30;;;;;;;11.30;72.14;95032.94;5029084;28;20314;-80
2022/04/07 07:56:29;;;;;;;1.00;0.57;;;;;;;11.51;71.75;95027.94;5029112;28;20496;-81
2022/04/07 07:58:55;;;;;;;0.90;0.50;;;;;;;11.20;73.07;95028.75;4995890;28;20072;-82
2022/04/07 08:01:20;;;;;;;1.00;0.40;;;;;;;11.33;72.39;95019.31;5005553;28;20056;-84
2022/04/07 08:03:45;;;;;;;0.98;0.38;;;;;;;11.04;74.00;95007.56;5025632;28;20080;-81
2022/04/07 08:06:11;;;;;;;0.85;0.40;;;;;;;11.12;73.69;95032.13;5025473;28;20048;-83
2022/04/07 08:08:36;;;;;;;1.08;0.50;;;;;;;11.29;72.89;95004.59;5008815;28;20410;-83
2022/04/07 08:11:02;;;;;;;1.60;0.60;;;;;;;11.16;73.46;95021.88;5009074;28;20482;-83
2022/04/07 08:13:27;;;;;;;1.30;0.47;;;;;;;11.37;72.98;95002.00;5026590;28;20040;-83
2022/04/07 08:15:52;;;;;;;0.57;0.40;;;;;;;11.66;71.72;95003.28;4995727;28;20025;-84
2022/04/07 08:18:18;;;;;;;1.30;0.30;;;;;;;11.35;73.09;95009.34;5028322;28;20083;-82
2022/04/07 08:20:43;;;;;;;1.10;0.30;;;;;;;11.50;72.58;94994.38;5012302;28;20025;-80
2022/04/07 08:23:09;;;;;;;1.00;0.45;;;;;;;11.72;72.10;94989.06;5028643;28;20112;-81
2022/04/07 08:25:34;;;;;;;0.82;0.30;;;;;;;11.69;72.69;94992.28;5028459;28;20127;-81
2022/04/07 08:28:00;;;;;;;1.10;0.40;;;;;;;11.59;73.20;94989.94;5028022;28;20037;-80
2022/04/07 08:30:25;;;;;;;1.63;0.40;;;;;;;11.23;73.60;94967.50;5012223;28;20467;-79
2022/04/07 08:32:50;;;;;;;1.67;0.40;;;;;;;11.39;73.62;94994.66;5012308;28;20051;-80
2022/04/07 08:35:16;;;;;;;0.95;0.40;;;;;;;11.67;72.59;94994.41;5011679;28;20137;-80
2022/04/07 08:37:41;;;;;;;0.40;0.30;;;;;;;11.40;73.52;94985.78;4995492;28;20385;-79
2022/04/07 08:40:07;;;;;;;0.65;0.30;;;;;;;11.18;74.27;94999.66;4995447;28;20030;-79
2022/04/07 08:42:34;;;;;;;0.45;0.30;;;;;;;11.46;73.78;94993.44;5028285;28;20122;-78
2022/04/07 08:44:59;;;;;;;0.68;0.50;;;;;;;11.33;73.98;94982.84;5028398;28;20033;-78
2022/04/07 08:47:25;;;;;;;0.40;0.30;;;;;;;11.17;74.22;94982.50;5028290;28;20386;-79
2022/04/07 08:49:51;;;;;;;1.25;0.73;;;;;;;11.59;73.11;94990.72;5027701;28;20528;-79
2022/04/07 08:52:16;;;;;;;2.00;0.47;;;;;;;11.55;73.22;94991.63;5028024;28;20083;-79
2022/04/07 08:54:44;;;;;;;0.80;0.45;;;;;;;11.50;72.64;94971.69;5027093;28;20025;-80
2022/04/07 08:57:09;;;;;;;0.38;0.35;;;;;;;11.49;73.44;94972.00;5011601;28;20018;-79
2022/04/07 08:59:35;;;;;;;1.33;0.77;;;;;;;11.64;73.17;94968.19;5027160;28;20106;-79
2022/04/07 09:02:02;;;;;;;0.68;0.50;;;;;;;11.48;73.84;94941.78;5015907;28;20042;-78
2022/04/07 09:04:30;;;;;;;0.82;0.40;;;;;;;11.60;73.71;94957.59;5009450;28;20053;-78
2022/04/07 09:06:56;;;;;;;0.80;0.35;;;;;;;11.55;73.10;94966.34;5024426;28;20508;-79
2022/04/07 09:09:22;;;;;;;0.50;0.35;;;;;;;11.50;73.92;94950.84;5023841;28;20048;-79
2022/04/07 09:11:55;;;;;;;0.60;0.55;;;;;;;11.53;73.51;94967.69;5027551;28;20441;-79
2022/04/07 09:14:20;;;;;;;0.30;0.30;;;;;;;11.54;74.13;94943.94;5011044;28;20041;-80
2022/04/07 09:16:46;;;;;;;0.30;0.30;;;;;;;11.72;73.41;94936.91;5027537;28;20083;-79
2022/04/07 09:19:11;;;;;;;0.50;0.40;;;;;;;11.63;73.57;94956.97;5011006;28;20520;-78
2022/04/07 09:21:38;;;;;;;0.88;0.30;;;;;;;11.78;73.19;94951.31;5027899;28;20428;-80
2022/04/07 09:24:05;;;;;;;1.33;0.40;;;;;;;11.59;73.96;94953.47;5027851;28;20181;-79
2022/04/07 09:26:33;;;;;;;1.08;0.40;;;;;;;11.84;72.71;94948.56;5027022;28;20052;-80
2022/04/07 09:29:06;;;;;;;0.68;0.25;;;;;;;11.61;73.33;94933.06;5028425;28;20033;-80
2022/04/07 09:31:36;;;;;;;0.38;0.30;;;;;;;11.11;75.25;94942.03;5011104;28;20026;-79
2022/04/07 09:34:02;;;;;;;0.22;0.20;;;;;;;11.58;74.25;94923.25;5026964;28;20091;-79
2022/04/07 09:36:27;;;;;;;0.77;0.20;;;;;;;11.59;74.71;94909.16;5027132;28;20025;-80
2022/04/07 09:38:54;;;;;;;0.55;0.40;;;;;;;11.51;74.47;94902.09;5026561;28;20488;-80
2022/04/07 09:41:20;;;;;;;1.95;0.20;;;;;;;11.62;74.47;94921.59;5010546;28;20030;-79
2022/04/07 09:43:50;;;;;;;0.52;0.45;;;;;;;12.16;72.65;94922.03;5010697;28;20442;-79
2022/04/07 09:46:20;;;;;;;0.68;0.20;;;;;;;11.90;73.12;94916.81;5043917;28;20030;-80
2022/04/07 09:49:07;;;;;;;0.22;0.22;;;;;;;11.96;73.78;94907.81;5010477;28;20045;-79
2022/04/07 09:51:40;;;;;;;0.30;0.30;;;;;;;11.55;74.32;94909.00;5027254;28;20033;-79
2022/04/07 09:54:09;;;;;;;0.30;0.30;;;;;;;11.85;73.34;94901.31;5027426;28;20095;-80
2022/04/07 09:56:35;;;;;;;0.30;0.20;;;;;;;11.80;74.15;94894.41;5027134;28;20033;-79
2022/04/07 09:59:01;;;;;;;0.75;0.28;;;;;;;12.09;74.22;94879.25;5026577;28;20037;-79
2022/04/07 10:01:27;;;;;;;0.80;0.40;;;;;;;12.28;73.27;94897.16;5002865;28;20034;-79
2022/04/07 10:03:52;;;;;;;0.50;0.40;;;;;;;11.98;74.43;94876.19;5023205;28;20033;-81
2022/04/07 10:06:19;;;;;;;0.40;0.20;;;;;;;12.49;72.44;94878.97;5006687;28;20022;-79
2022/04/07 10:08:52;;;;;;;0.38;0.30;;;;;;;11.97;73.72;94856.41;5023029;28;20038;-81
2022/04/07 10:11:17;;;;;;;1.02;0.25;;;;;;;11.98;74.52;94853.50;4991008;28;20026;-82
2022/04/07 10:13:44;;;;;;;4.90;0.60;;;;;;;12.28;73.43;94850.19;5026701;28;20040;-82
2022/04/07 10:16:13;;;;;;;0.20;0.20;;;;;;;12.20;74.08;94845.75;4993737;28;20017;-80
2022/04/07 10:18:49;;;;;;;1.65;0.30;;;;;;;12.14;73.73;94837.34;5026113;28;20041;-80
2022/04/07 10:21:38;;;;;;;0.30;0.30;;;;;;;11.91;74.27;94829.72;5010106;28;20040;-80
2022/04/07 10:24:13;;;;;;;0.52;0.30;;;;;;;12.30;73.28;94827.16;5043001;28;20029;-80
2022/04/07 10:26:44;;;;;;;0.77;0.20;;;;;;;11.85;74.93;94827.56;5010217;28;20050;-79
2022/04/07 10:29:22;;;;;;;0.35;0.30;;;;;;;12.28;73.36;94813.66;5009460;28;20034;-79
2022/04/07 10:32:12;;;;;;;0.20;0.20;;;;;;;12.14;73.94;94819.84;4993683;28;20032;-80
2022/04/07 10:34:42;;;;;;;0.50;0.30;;;;;;;12.13;74.14;94826.16;5026468;28;20021;-78
2022/04/07 10:37:08;;;;;;;0.68;0.30;;;;;;;12.17;74.49;94797.59;5042838;28;20579;-79
2022/04/07 10:39:34;;;;;;;1.13;0.30;;;;;;;12.43;73.46;94805.31;5026556;28;20072;-77
2022/04/07 10:42:00;;;;;;;0.60;0.20;;;;;;;12.51;72.96;94817.56;5009745;28;20112;-78
2022/04/07 10:44:26;;;;;;;0.22;0.20;;;;;;;12.50;72.82;94807.44;5026525;28;20041;-78
2022/04/07 10:47:05;;;;;;;0.40;0.30;;;;;;;11.82;74.94;94800.25;5009749;28;20032;-79
2022/04/07 10:49:32;;;;;;;0.47;0.30;;;;;;;12.49;73.73;94793.63;5026301;28;20061;-79
2022/04/07 10:52:02;;;;;;;0.45;0.30;;;;;;;12.36;73.84;94792.00;5026261;28;20041;-79
2022/04/07 10:54:30;;;;;;;1.67;0.57;;;;;;;12.48;73.89;94792.09;5010801;28;20455;-79
2022/04/07 10:56:59;;;;;;;0.45;0.40;;;;;;;12.44;73.90;94772.13;5009527;28;20512;-78
2022/04/07 10:59:24;;;;;;;1.20;0.30;;;;;;;12.54;73.65;94780.41;5042176;28;20040;-79
2022/04/07 11:01:59;;;;;;;0.70;0.40;;;;;;;12.48;74.38;94763.38;5015622;28;20041;-78
2022/04/07 11:04:24;;;;;;;0.50;0.50;;;;;;;12.75;73.60;94761.38;5006022;28;20037;-79
2022/04/07 11:07:07;;;;;;;0.40;0.40;;;;;;;12.59;73.48;94765.63;5007719;28;20046;-77
2022/04/07 11:09:57;;;;;;;0.40;0.40;;;;;;;12.77;73.43;94761.84;5005839;28;20521;-78
2022/04/07 11:12:29;;;;;;;0.50;0.32;;;;;;;13.08;72.51;94753.59;5032075;28;20052;-78
2022/04/07 11:15:01;;;;;;;1.02;0.50;;;;;;;12.70;73.18;94757.09;5025953;28;20104;-79
2022/04/07 11:17:39;;;;;;;0.50;0.30;;;;;;;12.71;73.31;94761.25;5044780;28;20030;-79
2022/04/07 11:20:04;;;;;;;1.10;0.40;;;;;;;12.78;73.35;94767.81;5029840;28;20026;-78
2022/04/07 11:22:54;;;;;;;0.60;0.45;;;;;;;12.60;74.09;94754.88;5030964;28;20037;-78
2022/04/07 11:25:31;;;;;;;0.95;0.38;;;;;;;12.73;73.66;94740.81;5046313;28;20531;-79
2022/04/07 11:28:17;;;;;;;0.30;0.30;;;;;;;12.74;74.16;94754.63;5045461;28;20041;-78
2022/04/07 11:30:53;;;;;;;0.38;0.38;;;;;;;12.97;73.23;94749.88;5029274;28;20485;-79
2022/04/07 11:33:19;;;;;;;1.02;0.95;;;;;;;13.29;72.77;94745.00;5046156;28;20034;-79